createdAt,value
2022-08-21T00:00:24.904Z,4.40
2022-08-21T00:02:57.682Z,5.10
2022-08-21T00:05:26.928Z,4.50
2022-08-21T00:07:54.763Z,4.27
2022-08-21T00:10:22.544Z,4.13
2022-08-21T00:12:50.450Z,4.40
2022-08-21T00:15:22.518Z,4.80
2022-08-21T00:17:49.832Z,4.17
2022-08-21T00:20:19.132Z,4.10
2022-08-21T00:22:46.833Z,4.47
2022-08-21T00:25:15.509Z,4.33
2022-08-21T00:27:43.441Z,3.33
2022-08-21T00:30:23.362Z,3.43
2022-08-21T00:32:51.972Z,4.40
2022-08-21T00:35:26.787Z,4.60
2022-08-21T00:37:53.979Z,3.77
2022-08-21T00:40:31.799Z,4.20
2022-08-21T00:42:58.885Z,3.87
2022-08-21T00:45:26.419Z,3.83
2022-08-21T00:47:56.018Z,4.27
2022-08-21T00:50:24.003Z,4.93
2022-08-21T00:52:53.225Z,4.83
2022-08-21T00:55:23.559Z,4.87
2022-08-21T00:57:54.531Z,4.97
2022-08-21T01:00:29.717Z,4.40
2022-08-21T01:02:59.858Z,4.60
2022-08-21T01:05:28.388Z,4.73
2022-08-21T01:07:58.035Z,5.07
2022-08-21T01:10:25.392Z,3.50
2022-08-21T01:12:55.971Z,4.03
2022-08-21T01:15:26.034Z,3.67
2022-08-21T01:17:54.699Z,4.40
2022-08-21T01:20:22.063Z,4.13
2022-08-21T01:23:00.254Z,4.00
2022-08-21T01:25:27.172Z,4.90
2022-08-21T01:27:54.076Z,4.13
2022-08-21T01:30:26.251Z,4.07
2022-08-21T01:32:54.488Z,3.20
2022-08-21T01:35:21.881Z,4.37
2022-08-21T01:37:49.712Z,3.30
2022-08-21T01:40:18.827Z,4.23
2022-08-21T01:42:47.406Z,3.47
2022-08-21T01:45:15.262Z,3.70
2022-08-21T01:47:42.754Z,3.90
2022-08-21T01:50:15.388Z,3.60
2022-08-21T01:52:42.502Z,3.97
2022-08-21T01:55:12.387Z,3.80
2022-08-21T01:57:39.715Z,3.60
2022-08-21T02:00:11.845Z,3.23
2022-08-21T02:02:42.157Z,3.67
2022-08-21T02:05:11.664Z,3.43
2022-08-21T02:07:52.461Z,3.50
2022-08-21T02:10:29.064Z,3.20
2022-08-21T02:12:57.606Z,3.27
2022-08-21T02:15:24.700Z,3.20
2022-08-21T02:17:59.055Z,3.43
2022-08-21T02:20:35.608Z,3.50
2022-08-21T02:23:03.439Z,3.37
2022-08-21T02:25:31.368Z,3.97
2022-08-21T02:28:00.489Z,3.80
2022-08-21T02:30:39.020Z,3.50
2022-08-21T02:33:07.275Z,3.37
2022-08-21T02:35:34.236Z,2.87
2022-08-21T02:38:06.315Z,3.03
2022-08-21T02:40:37.323Z,3.23
2022-08-21T02:43:10.975Z,4.03
2022-08-21T02:45:40.876Z,3.40
2022-08-21T02:48:12.752Z,3.73
2022-08-21T02:50:48.595Z,4.03
2022-08-21T02:53:17.612Z,2.93
2022-08-21T02:55:50.107Z,3.50
2022-08-21T02:58:23.364Z,3.47
2022-08-21T03:00:50.872Z,3.17
2022-08-21T03:03:17.776Z,3.60
2022-08-21T03:05:45.188Z,3.50
2022-08-21T03:08:14.855Z,3.50
2022-08-21T03:10:47.897Z,3.33
2022-08-21T03:13:16.027Z,3.13
2022-08-21T03:15:43.721Z,3.27
2022-08-21T03:18:12.269Z,3.27
2022-08-21T03:20:41.878Z,3.10
2022-08-21T03:23:13.395Z,3.40
2022-08-21T03:25:42.396Z,3.43
2022-08-21T03:28:15.831Z,2.70
2022-08-21T03:30:45.819Z,2.80
2022-08-21T03:33:15.078Z,2.87
2022-08-21T03:35:44.617Z,2.83
2022-08-21T03:38:13.939Z,3.23
2022-08-21T03:40:43.051Z,3.70
2022-08-21T03:43:10.433Z,2.80
2022-08-21T03:45:38.567Z,3.50
2022-08-21T03:48:07.533Z,3.70
2022-08-21T03:50:40.914Z,2.90
2022-08-21T03:53:17.608Z,3.90
2022-08-21T03:55:51.814Z,3.13
2022-08-21T03:58:22.111Z,3.13
2022-08-21T04:00:52.353Z,2.93
2022-08-21T04:03:20.842Z,4.33
2022-08-21T04:05:48.118Z,3.73
2022-08-21T04:08:18.238Z,2.93
2022-08-21T04:10:47.676Z,3.83
2022-08-21T04:13:15.657Z,3.20
2022-08-21T04:15:42.606Z,3.20
2022-08-21T04:18:09.531Z,3.23
2022-08-21T04:20:36.481Z,2.87
2022-08-21T04:23:04.155Z,2.80
2022-08-21T04:25:31.595Z,2.90
2022-08-21T04:27:59.363Z,3.07
2022-08-21T04:30:28.327Z,3.03
2022-08-21T04:32:58.121Z,4.10
2022-08-21T04:35:27.851Z,3.50
2022-08-21T04:37:55.430Z,3.30
2022-08-21T04:40:25.100Z,3.30
2022-08-21T04:43:03.877Z,3.20
2022-08-21T04:45:34.667Z,3.97
2022-08-21T04:48:07.807Z,3.20
2022-08-21T04:50:49.635Z,3.77
2022-08-21T04:53:27.962Z,3.30
2022-08-21T04:55:57.222Z,3.47
2022-08-21T04:58:28.175Z,2.93
2022-08-21T05:00:57.293Z,3.17
2022-08-21T05:03:24.367Z,3.77
2022-08-21T05:05:51.537Z,3.90
2022-08-21T05:08:22.711Z,3.07
2022-08-21T05:10:49.945Z,4.30
2022-08-21T05:13:17.487Z,3.63
2022-08-21T05:15:44.402Z,3.70
2022-08-21T05:18:11.850Z,3.17
2022-08-21T05:20:39.220Z,3.70
2022-08-21T05:23:12.331Z,3.83
2022-08-21T05:25:39.669Z,2.83
2022-08-21T05:28:07.321Z,3.33
2022-08-21T05:30:35.890Z,3.60
2022-08-21T05:33:05.582Z,3.37
2022-08-21T05:35:33.347Z,3.10
2022-08-21T05:38:01.281Z,3.53
2022-08-21T05:40:28.711Z,3.20
2022-08-21T05:42:57.164Z,3.47
2022-08-21T05:45:43.010Z,2.80
2022-08-21T05:48:18.977Z,3.80
2022-08-21T05:50:47.900Z,4.13
2022-08-21T05:53:16.495Z,2.87
2022-08-21T05:55:46.536Z,3.80
2022-08-21T05:58:20.191Z,3.67
2022-08-21T06:00:50.181Z,3.97
2022-08-21T06:03:30.219Z,4.07
2022-08-21T06:05:57.201Z,4.20
2022-08-21T06:08:25.023Z,3.37
2022-08-21T06:10:53.852Z,3.33
2022-08-21T06:13:22.431Z,3.10
2022-08-21T06:15:50.987Z,3.37
2022-08-21T06:18:18.465Z,2.87
2022-08-21T06:20:45.595Z,3.47
2022-08-21T06:23:12.500Z,3.07
2022-08-21T06:25:39.463Z,3.53
2022-08-21T06:28:09.691Z,3.60
2022-08-21T06:30:39.457Z,3.23
2022-08-21T06:33:07.930Z,3.47
2022-08-21T06:35:36.063Z,3.17
2022-08-21T06:38:03.452Z,3.47
2022-08-21T06:40:34.163Z,3.37
2022-08-21T06:43:15.429Z,3.27
2022-08-21T06:45:43.246Z,3.20
2022-08-21T06:48:10.502Z,3.40
2022-08-21T06:50:37.680Z,3.20
2022-08-21T06:53:08.787Z,3.10
2022-08-21T06:55:35.725Z,3.10
2022-08-21T06:58:02.968Z,3.30
2022-08-21T07:00:30.453Z,3.10
2022-08-21T07:02:58.843Z,3.07
2022-08-21T07:05:31.194Z,4.00
2022-08-21T07:07:59.283Z,3.03
2022-08-21T07:10:27.260Z,3.10
2022-08-21T07:13:00.117Z,3.00
2022-08-21T07:15:32.131Z,2.67
2022-08-21T07:18:00.264Z,2.83
2022-08-21T07:20:29.819Z,2.83
2022-08-21T07:22:59.453Z,3.07
2022-08-21T07:25:26.459Z,2.60
2022-08-21T07:27:53.612Z,2.33
2022-08-21T07:30:20.957Z,2.80
2022-08-21T07:32:50.203Z,2.87
2022-08-21T07:35:19.637Z,2.87
2022-08-21T07:37:47.008Z,2.80
2022-08-21T07:40:14.806Z,2.63
2022-08-21T07:42:48.709Z,3.00
2022-08-21T07:45:15.993Z,2.90
2022-08-21T07:47:43.198Z,2.87
2022-08-21T07:50:13.259Z,3.10
2022-08-21T07:52:42.094Z,2.43
2022-08-21T07:55:13.231Z,2.70
2022-08-21T07:57:40.362Z,2.60
2022-08-21T08:00:11.635Z,2.60
2022-08-21T08:02:41.878Z,3.13
2022-08-21T08:05:12.110Z,2.73
2022-08-21T08:07:40.179Z,2.90
2022-08-21T08:10:08.530Z,2.40
2022-08-21T08:12:37.435Z,2.40
2022-08-21T08:15:06.988Z,2.10
2022-08-21T08:17:33.898Z,2.13
2022-08-21T08:20:01.873Z,3.27
2022-08-21T08:22:28.793Z,2.40
2022-08-21T08:24:56.655Z,2.47
2022-08-21T08:27:24.040Z,2.47
2022-08-21T08:29:51.331Z,2.43
2022-08-21T08:32:18.888Z,2.30
2022-08-21T08:34:47.753Z,2.37
2022-08-21T08:37:14.766Z,2.73
2022-08-21T08:39:42.231Z,1.90
2022-08-21T08:42:33.081Z,2.60
2022-08-21T08:45:12.985Z,2.10
2022-08-21T08:47:46.079Z,1.80
2022-08-21T08:50:26.643Z,2.43
2022-08-21T08:53:07.062Z,2.07
2022-08-21T08:55:44.092Z,2.40
2022-08-21T08:58:24.438Z,2.53
2022-08-21T09:00:54.651Z,3.00
2022-08-21T09:03:24.476Z,2.27
2022-08-21T09:06:02.691Z,2.13
2022-08-21T09:08:57.573Z,2.67
2022-08-21T09:12:07.513Z,2.37
2022-08-21T09:15:03.366Z,2.10
2022-08-21T09:17:39.178Z,2.50
2022-08-21T09:20:40.098Z,2.60
2022-08-21T09:23:47.116Z,2.23
2022-08-21T09:26:28.024Z,3.20
2022-08-21T09:28:59.661Z,2.07
2022-08-21T09:31:30.711Z,2.20
2022-08-21T09:34:09.309Z,2.60
2022-08-21T09:36:48.960Z,2.20
2022-08-21T09:39:30.355Z,2.90
2022-08-21T09:42:09.919Z,2.33
2022-08-21T09:44:44.151Z,2.30
2022-08-21T09:47:15.993Z,2.60
2022-08-21T09:49:43.965Z,2.57
2022-08-21T09:52:23.538Z,2.10
2022-08-21T09:54:56.205Z,1.80
2022-08-21T09:57:46.815Z,2.63
2022-08-21T10:00:23.614Z,2.20
2022-08-21T10:02:50.723Z,2.27
2022-08-21T10:05:23.878Z,2.37
2022-08-21T10:07:51.503Z,2.33
2022-08-21T10:10:30.724Z,2.83
2022-08-21T10:13:22.297Z,2.20
2022-08-21T10:16:29.605Z,2.40
2022-08-21T10:19:17.505Z,2.23
2022-08-21T10:22:08.374Z,2.17
2022-08-21T10:24:53.958Z,2.37
2022-08-21T10:27:36.081Z,2.33
2022-08-21T10:30:10.348Z,1.73
2022-08-21T10:33:05.114Z,1.77
2022-08-21T10:35:40.663Z,2.10
2022-08-21T10:39:07.395Z,1.60
2022-08-21T10:42:06.312Z,2.20
2022-08-21T10:44:57.528Z,2.03
2022-08-21T10:47:49.804Z,1.83
2022-08-21T10:50:43.091Z,2.30
2022-08-21T10:53:49.874Z,3.23
2022-08-21T10:56:24.003Z,1.90
2022-08-21T10:59:30.802Z,1.97
2022-08-21T11:02:16.481Z,2.30
2022-08-21T11:05:34.587Z,1.80
2022-08-21T11:08:24.239Z,1.40
2022-08-21T11:11:01.529Z,2.37
2022-08-21T11:13:54.930Z,1.87
2022-08-21T11:17:06.676Z,2.00
2022-08-21T11:19:57.810Z,2.30
2022-08-21T11:22:41.695Z,2.20
2022-08-21T11:25:36.763Z,2.10
2022-08-21T11:28:14.451Z,2.27
2022-08-21T11:31:32.635Z,1.70
2022-08-21T11:34:26.044Z,2.27
2022-08-21T11:37:55.555Z,1.90
2022-08-21T11:40:37.273Z,1.93
2022-08-21T11:43:33.055Z,2.03
2022-08-21T11:46:14.063Z,1.90
2022-08-21T11:49:04.556Z,1.60
2022-08-21T11:52:10.693Z,1.70
2022-08-21T11:55:08.031Z,1.73
2022-08-21T11:57:58.316Z,1.77
2022-08-21T12:00:37.251Z,1.70
2022-08-21T12:03:15.761Z,2.03
2022-08-21T12:05:54.275Z,2.60
2022-08-21T12:08:32.619Z,2.30
2022-08-21T12:11:17.629Z,1.87
2022-08-21T12:14:18.383Z,2.20
2022-08-21T12:16:49.936Z,1.90
2022-08-21T12:19:25.809Z,1.43
2022-08-21T12:21:58.438Z,1.63
2022-08-21T12:24:28.134Z,1.97
2022-08-21T12:27:22.301Z,1.77
2022-08-21T12:29:54.010Z,2.00
2022-08-21T12:32:29.437Z,1.93
2022-08-21T12:35:08.306Z,1.40
2022-08-21T12:37:51.465Z,1.77
2022-08-21T12:40:48.803Z,1.70
2022-08-21T12:43:41.360Z,1.50
2022-08-21T12:46:19.252Z,1.53
2022-08-21T12:48:58.346Z,2.20
2022-08-21T12:51:31.744Z,1.93
2022-08-21T12:54:00.446Z,1.97
2022-08-21T12:56:34.168Z,1.97
2022-08-21T12:59:08.894Z,1.93
2022-08-21T13:01:50.876Z,1.73
2022-08-21T13:04:37.185Z,1.73
2022-08-21T13:07:13.273Z,1.47
2022-08-21T13:09:53.540Z,1.50
2022-08-21T13:12:23.884Z,1.40
2022-08-21T13:15:00.332Z,1.67
2022-08-21T13:17:35.876Z,1.50
2022-08-21T13:20:20.603Z,1.73
2022-08-21T13:22:47.764Z,2.17
2022-08-21T13:25:19.864Z,1.40
2022-08-21T13:28:11.751Z,1.67
2022-08-21T13:30:46.848Z,1.60
2022-08-21T13:33:21.285Z,1.83
2022-08-21T13:36:21.657Z,1.77
2022-08-21T13:38:48.630Z,1.60
2022-08-21T13:41:28.835Z,2.10
2022-08-21T13:44:05.746Z,1.77
2022-08-21T13:46:35.769Z,1.20
2022-08-21T13:49:06.176Z,1.60
2022-08-21T13:51:34.051Z,1.50
2022-08-21T13:54:01.274Z,1.57
2022-08-21T13:56:31.148Z,1.83
2022-08-21T13:59:00.205Z,1.50
2022-08-21T14:01:32.955Z,1.53
2022-08-21T14:04:17.573Z,1.60
2022-08-21T14:06:44.617Z,2.03
2022-08-21T14:09:29.833Z,2.40
2022-08-21T14:11:59.196Z,1.70
2022-08-21T14:14:34.352Z,1.70
2022-08-21T14:17:25.421Z,1.70
2022-08-21T14:19:55.244Z,1.60
2022-08-21T14:22:44.366Z,1.50
2022-08-21T14:25:19.096Z,1.70
2022-08-21T14:28:20.756Z,1.70
2022-08-21T14:30:51.380Z,1.60
2022-08-21T14:33:34.615Z,1.50
2022-08-21T14:36:02.935Z,1.53
2022-08-21T14:38:30.350Z,1.80
2022-08-21T14:41:09.574Z,1.87
2022-08-21T14:43:36.511Z,1.80
2022-08-21T14:46:03.495Z,1.90
2022-08-21T14:48:30.442Z,1.93
2022-08-21T14:51:00.529Z,2.13
2022-08-21T14:53:27.829Z,3.43
2022-08-21T14:56:07.851Z,2.43
2022-08-21T14:58:42.990Z,2.43
2022-08-21T15:01:13.591Z,1.47
2022-08-21T15:03:40.797Z,2.77
2022-08-21T15:06:09.877Z,1.70
2022-08-21T15:08:37.482Z,2.10
2022-08-21T15:11:12.123Z,2.10
2022-08-21T15:13:41.718Z,2.00
2022-08-21T15:16:10.525Z,2.30
2022-08-21T15:18:37.440Z,2.57
2022-08-21T15:21:04.460Z,2.07
2022-08-21T15:23:31.371Z,1.63
2022-08-21T15:26:00.828Z,1.40
2022-08-21T15:28:31.893Z,1.77
2022-08-21T15:31:01.674Z,1.50
2022-08-21T15:33:29.599Z,1.83
2022-08-21T15:35:56.560Z,1.70
2022-08-21T15:38:23.618Z,1.50
2022-08-21T15:40:51.946Z,1.93
2022-08-21T15:43:30.924Z,1.80
2022-08-21T15:46:00.617Z,2.20
2022-08-21T15:48:28.672Z,2.00
2022-08-21T15:50:55.907Z,1.80
2022-08-21T15:53:22.845Z,1.57
2022-08-21T15:55:49.773Z,2.30
2022-08-21T15:58:18.130Z,2.13
2022-08-21T16:00:47.768Z,2.20
2022-08-21T16:03:17.743Z,2.03
2022-08-21T16:05:50.022Z,2.00
2022-08-21T16:08:16.933Z,1.97
2022-08-21T16:10:43.905Z,2.13
2022-08-21T16:13:39.171Z,1.97
2022-08-21T16:16:06.891Z,1.93
2022-08-21T16:18:33.890Z,1.80
2022-08-21T16:21:00.800Z,1.80
2022-08-21T16:23:27.706Z,1.83
2022-08-21T16:25:54.646Z,1.97
2022-08-21T16:28:21.990Z,2.60
2022-08-21T16:30:50.792Z,1.67
2022-08-21T16:33:38.075Z,1.63
2022-08-21T16:36:09.835Z,1.90
2022-08-21T16:38:38.234Z,2.10
2022-08-21T16:41:14.496Z,2.03
2022-08-21T16:43:43.209Z,2.07
2022-08-21T16:46:12.703Z,1.57
2022-08-21T16:48:40.614Z,2.20
2022-08-21T16:51:07.901Z,2.07
2022-08-21T16:53:34.920Z,2.13
2022-08-21T16:56:02.033Z,1.80
2022-08-21T16:58:37.340Z,2.37
2022-08-21T17:01:07.986Z,2.30
2022-08-21T17:03:42.308Z,1.70
2022-08-21T17:06:10.431Z,1.93
2022-08-21T17:08:38.093Z,1.77
2022-08-21T17:11:37.583Z,2.03
2022-08-21T17:14:15.165Z,1.90
2022-08-21T17:16:46.270Z,1.93
2022-08-21T17:19:14.093Z,1.63
2022-08-21T17:21:41.404Z,2.07
2022-08-21T17:24:08.741Z,1.63
2022-08-21T17:26:36.866Z,2.10
2022-08-21T17:29:09.730Z,2.10
2022-08-21T17:31:39.499Z,2.03
2022-08-21T17:34:06.436Z,1.53
2022-08-21T17:36:33.393Z,1.70
2022-08-21T17:39:00.380Z,1.70
2022-08-21T17:41:27.571Z,1.40
2022-08-21T17:43:55.532Z,1.83
2022-08-21T17:46:27.696Z,1.67
2022-08-21T17:48:56.100Z,1.53
2022-08-21T17:51:23.771Z,1.80
2022-08-21T17:53:50.683Z,1.90
2022-08-21T17:56:19.523Z,2.00
2022-08-21T17:58:49.852Z,2.20
2022-08-21T18:01:17.729Z,2.47
2022-08-21T18:03:47.018Z,2.20
2022-08-21T18:06:17.718Z,1.90
2022-08-21T18:08:46.286Z,2.57
2022-08-21T18:11:23.700Z,2.07
2022-08-21T18:13:53.013Z,2.40
2022-08-21T18:16:20.595Z,2.47
2022-08-21T18:18:49.352Z,2.00
2022-08-21T18:21:16.507Z,1.67
2022-08-21T18:23:45.105Z,2.30
2022-08-21T18:26:16.903Z,2.13
2022-08-21T18:28:44.319Z,1.83
2022-08-21T18:31:13.011Z,1.93
2022-08-21T18:33:57.804Z,3.10
2022-08-21T18:36:27.572Z,1.93
2022-08-21T18:39:08.651Z,2.87
2022-08-21T18:41:44.724Z,2.37
2022-08-21T18:44:14.301Z,2.80
2022-08-21T18:46:43.991Z,2.10
2022-08-21T18:49:10.972Z,2.50
2022-08-21T18:51:37.958Z,2.50
2022-08-21T18:54:12.824Z,2.70
2022-08-21T18:56:41.456Z,2.83
2022-08-21T18:59:10.161Z,2.93
2022-08-21T19:01:38.104Z,3.23
2022-08-21T19:04:06.696Z,2.70
2022-08-21T19:06:36.514Z,3.10
2022-08-21T19:09:07.175Z,2.43
2022-08-21T19:11:35.955Z,2.57
2022-08-21T19:14:10.224Z,3.10
2022-08-21T19:16:46.984Z,2.63
2022-08-21T19:19:15.746Z,3.57
2022-08-21T19:21:42.715Z,3.23
2022-08-21T19:24:17.780Z,2.70
2022-08-21T19:26:45.299Z,2.70
2022-08-21T19:29:15.013Z,2.93
2022-08-21T19:31:43.830Z,2.80
2022-08-21T19:34:22.465Z,2.80
2022-08-21T19:36:49.836Z,2.63
2022-08-21T19:39:17.871Z,2.47
2022-08-21T19:41:50.601Z,2.20
2022-08-21T19:44:22.227Z,2.43
2022-08-21T19:46:52.570Z,2.57
2022-08-21T19:49:26.780Z,2.20
2022-08-21T19:51:53.883Z,2.77
2022-08-21T19:54:26.075Z,2.50
2022-08-21T19:56:56.768Z,2.30
2022-08-21T19:59:27.257Z,2.83
2022-08-21T20:01:55.792Z,2.33
2022-08-21T20:04:23.834Z,2.50
2022-08-21T20:06:52.448Z,2.40
2022-08-21T20:09:20.205Z,2.70
2022-08-21T20:11:53.009Z,2.30
2022-08-21T20:14:25.770Z,2.57
2022-08-21T20:17:04.793Z,2.47
2022-08-21T20:19:31.817Z,2.27
2022-08-21T20:21:59.428Z,2.57
2022-08-21T20:24:27.391Z,2.07
2022-08-21T20:26:55.865Z,2.30
2022-08-21T20:29:24.117Z,2.57
2022-08-21T20:31:56.128Z,3.10
2022-08-21T20:34:23.392Z,2.73
2022-08-21T20:36:53.323Z,3.03
2022-08-21T20:39:23.885Z,2.90
2022-08-21T20:41:53.004Z,2.93
2022-08-21T20:44:20.621Z,3.13
2022-08-21T20:46:47.690Z,3.30
2022-08-21T20:49:21.539Z,2.90
2022-08-21T20:51:52.380Z,2.50
2022-08-21T20:54:44.431Z,3.40
2022-08-21T20:57:31.611Z,2.50
2022-08-21T21:00:07.532Z,2.50
2022-08-21T21:02:53.763Z,2.20
2022-08-21T21:05:33.725Z,2.80
2022-08-21T21:08:46.627Z,3.30
2022-08-21T21:11:21.640Z,2.50
2022-08-21T21:14:11.350Z,2.47
2022-08-21T21:16:55.766Z,3.67
2022-08-21T21:19:41.863Z,3.63
2022-08-21T21:22:20.588Z,3.90
2022-08-21T21:24:59.238Z,3.33
2022-08-21T21:27:37.068Z,3.63
2022-08-21T21:30:29.619Z,4.93
2022-08-21T21:32:57.444Z,3.83
2022-08-21T21:35:41.507Z,4.33
2022-08-21T21:38:38.022Z,3.83
2022-08-21T21:41:34.865Z,3.87
2022-08-21T21:44:48.160Z,3.50
2022-08-21T21:47:21.536Z,3.33
2022-08-21T21:50:20.917Z,4.10
2022-08-21T21:53:29.185Z,3.83
2022-08-21T21:55:58.764Z,4.13
2022-08-21T21:58:53.432Z,3.70
2022-08-21T22:01:39.724Z,3.50
2022-08-21T22:04:33.123Z,3.00
2022-08-21T22:07:37.598Z,2.23
2022-08-21T22:10:42.944Z,2.93
2022-08-21T22:13:33.487Z,2.90
2022-08-21T22:16:06.546Z,3.00
2022-08-21T22:18:45.171Z,2.67
2022-08-21T22:21:22.477Z,2.97
2022-08-21T22:23:58.486Z,3.00
2022-08-21T22:26:44.444Z,3.53
2022-08-21T22:29:17.743Z,3.33
2022-08-21T22:32:01.323Z,3.20
2022-08-21T22:34:32.241Z,4.27
2022-08-21T22:37:07.956Z,3.20
2022-08-21T22:39:43.416Z,3.10
2022-08-21T22:42:31.272Z,3.67
2022-08-21T22:45:02.737Z,4.77
2022-08-21T22:47:43.352Z,3.30
2022-08-21T22:50:37.629Z,3.57
2022-08-21T22:53:08.828Z,3.17
2022-08-21T22:55:55.370Z,3.10
2022-08-21T22:58:34.199Z,3.17
2022-08-21T23:01:25.165Z,3.37
2022-08-21T23:03:57.495Z,3.37
2022-08-21T23:06:52.707Z,3.97
2022-08-21T23:09:38.348Z,3.70
2022-08-21T23:12:34.081Z,3.90
2022-08-21T23:15:11.511Z,3.63
2022-08-21T23:18:06.096Z,3.30
2022-08-21T23:21:12.480Z,3.20
2022-08-21T23:24:06.752Z,2.97
2022-08-21T23:27:24.094Z,3.33
2022-08-21T23:30:04.849Z,2.93
2022-08-21T23:33:34.267Z,3.50
2022-08-21T23:36:43.618Z,3.23
2022-08-21T23:40:06.807Z,3.00
2022-08-21T23:43:43.696Z,3.10
2022-08-21T23:46:36.402Z,3.50
2022-08-21T23:49:45.023Z,2.57
2022-08-21T23:52:24.769Z,3.60
2022-08-21T23:55:24.720Z,3.70
2022-08-21T23:58:34.341Z,2.80
